Time;durP1;ratioP1;P1;durP2;ratioP2;P2;SDS_P1;SDS_P2;PMS_P1;PMS_P2;Temp;Humidity;BMP_temperature;BMP_pressure;BME280_temperature;BME280_humidity;BME280_pressure;Samples;Min_cycle;Max_cycle;Signal;HPM_P1;HPM_P2
2021/01/26 00:00:43;;;;;;;;;;;;;;;0.91;79.37;99648.78;3129903;28;20599;-79
2021/01/26 00:02:24;;;;;;;;;;;;;;;0.94;79.17;99648.59;3129648;28;20019;-79
2021/01/26 00:03:55;;;;;;;;;;;;;;;0.93;78.94;99641.66;3130873;28;20441;-78
2021/01/26 00:05:27;;;;;;;;;;;;;;;0.98;78.90;99650.09;3128016;28;19929;-79
2021/01/26 00:06:58;;;;;;;;;;;;;;;1.09;79.08;99649.44;3127822;28;19968;-79
2021/01/26 00:08:29;;;;;;;;;;;;;;;1.07;78.97;99654.81;3128037;28;19932;-79
2021/01/26 00:10:00;;;;;;;;;;;;;;;1.06;78.95;99653.09;3129103;28;19925;-79
2021/01/26 00:11:32;;;;;;;;;;;;;;;1.08;78.74;99648.59;3132889;28;19925;-79
2021/01/26 00:13:03;;;;;;;;;;;;;;;1.08;78.68;99653.88;3129305;28;20399;-79
2021/01/26 00:14:34;;;;;;;;;;;;;;;1.09;78.30;99657.31;3131447;28;20027;-79
2021/01/26 00:16:05;;;;;;;;;;;;;;;1.09;78.65;99655.56;3134423;28;19925;-79
2021/01/26 00:17:36;;;;;;;;;;;;;;;1.14;78.77;99651.78;3144329;28;20222;-79
2021/01/26 00:19:07;;;;;;;;;;;;;;;1.09;78.52;99657.31;3147324;28;19932;-80
2021/01/26 00:20:40;;;;;;;;;;;;;;;1.10;78.67;99645.88;3135991;28;20364;-79
2021/01/26 00:22:11;;;;;;;;;;;;;;;1.16;78.48;99653.41;3135690;28;19925;-78
2021/01/26 00:23:43;;;;;;;;;;;;;;;1.15;78.60;99653.47;3132442;28;19924;-80
2021/01/26 00:25:16;;;;;;;;;;;;;;;1.16;78.67;99652.53;3130116;28;19967;-80
2021/01/26 00:26:47;;;;;;;;;;;;;;;1.17;78.60;99654.25;3134678;28;19929;-79
2021/01/26 00:28:18;;;;;;;;;;;;;;;1.17;78.39;99651.59;3134258;28;19932;-79
2021/01/26 00:29:49;;;;;;;;;;;;;;;1.15;78.46;99643.81;3137029;28;20387;-79
2021/01/26 00:31:20;;;;;;;;;;;;;;;1.21;78.42;99653.13;3142990;28;19925;-79
2021/01/26 00:32:51;;;;;;;;;;;;;;;1.24;78.40;99655.53;3140158;28;19931;-80
2021/01/26 00:34:23;;;;;;;;;;;;;;;1.21;78.50;99653.94;3133941;28;20797;-79
2021/01/26 00:35:55;;;;;;;;;;;;;;;1.20;78.00;99656.69;3137986;28;19929;-81
2021/01/26 00:37:25;;;;;;;;;;;;;;;1.22;78.36;99652.19;3131653;28;20639;-80
2021/01/26 00:38:56;;;;;;;;;;;;;;;1.22;78.13;99653.03;3132401;28;19959;-80
2021/01/26 00:40:28;;;;;;;;;;;;;;;1.27;78.29;99652.72;3133966;28;19987;-79
2021/01/26 00:41:59;;;;;;;;;;;;;;;1.35;78.18;99647.84;3133829;28;19924;-79
2021/01/26 00:43:31;;;;;;;;;;;;;;;1.35;78.14;99658.38;3132412;28;20582;-79
2021/01/26 00:45:02;;;;;;;;;;;;;;;1.31;78.05;99648.97;3135171;28;19924;-79
2021/01/26 00:46:35;;;;;;;;;;;;;;;1.30;78.04;99659.59;3132183;28;27201;-79
2021/01/26 00:48:06;;;;;;;;;;;;;;;1.30;77.96;99654.31;3135290;28;20027;-79
2021/01/26 00:49:37;;;;;;;;;;;;;;;1.29;78.04;99647.34;3129813;28;20652;-79
2021/01/26 00:51:09;;;;;;;;;;;;;;;1.28;77.97;99657.06;3134152;28;19925;-79
2021/01/26 00:52:40;;;;;;;;;;;;;;;1.21;78.04;99655.75;3131112;28;19998;-79
2021/01/26 00:54:11;;;;;;;;;;;;;;;1.20;78.45;99649.63;3132785;28;20364;-79
2021/01/26 00:55:43;;;;;;;;;;;;;;;1.18;78.26;99655.94;3134950;28;20606;-79
2021/01/26 00:57:19;;;;;;;;;;;;;;;1.15;78.33;99650.84;3134446;28;20352;-79
2021/01/26 00:58:50;;;;;;;;;;;;;;;1.19;78.25;99652.38;3131994;28;19935;-78
2021/01/26 01:00:23;;;;;;;;;;;;;;;1.19;78.37;99649.72;3136080;28;19926;-79
2021/01/26 01:01:54;;;;;;;;;;;;;;;1.19;78.63;99645.28;3132015;28;19925;-79
2021/01/26 01:03:25;;;;;;;;;;;;;;;1.16;78.59;99649.91;3132542;28;20490;-79
2021/01/26 01:04:56;;;;;;;;;;;;;;;1.19;78.46;99655.00;3129254;28;19972;-79
2021/01/26 01:06:29;;;;;;;;;;;;;;;1.21;78.66;99655.75;3126762;28;19937;-79
2021/01/26 01:07:59;;;;;;;;;;;;;;;1.31;78.51;99656.88;3131784;28;19946;-80
2021/01/26 01:09:30;;;;;;;;;;;;;;;1.40;78.18;99660.72;3131706;28;20083;-79
2021/01/26 01:11:02;;;;;;;;;;;;;;;1.40;77.98;99666.84;3130584;28;19924;-80
2021/01/26 01:12:32;;;;;;;;;;;;;;;1.33;77.89;99670.78;3134566;28;19979;-80
2021/01/26 01:14:03;;;;;;;;;;;;;;;1.28;77.91;99669.38;3130387;28;19928;-79
2021/01/26 01:15:35;;;;;;;;;;;;;;;1.23;78.30;99677.56;3123139;28;19928;-79
2021/01/26 01:17:06;;;;;;;;;;;;;;;1.20;78.14;99678.59;3128968;28;20054;-79
2021/01/26 01:18:37;;;;;;;;;;;;;;;1.18;78.45;99693.63;3125295;28;19990;-79
2021/01/26 01:20:09;;;;;;;;;;;;;;;1.16;78.45;99690.28;3119776;28;19972;-79
2021/01/26 01:21:41;;;;;;;;;;;;;;;1.11;78.28;99689.69;3130958;28;19952;-79
2021/01/26 01:23:12;;;;;;;;;;;;;;;1.16;78.58;99694.66;3129926;28;20011;-79
2021/01/26 01:24:44;;;;;;;;;;;;;;;1.14;78.08;99693.91;3133734;28;20383;-79
2021/01/26 01:26:15;;;;;;;;;;;;;;;1.12;77.91;99693.19;3134077;28;19936;-79
2021/01/26 01:27:46;;;;;;;;;;;;;;;1.13;77.99;99700.16;3133070;28;19969;-79
2021/01/26 01:29:17;;;;;;;;;;;;;;;1.07;78.31;99696.94;3126109;28;20330;-79
2021/01/26 01:30:48;;;;;;;;;;;;;;;1.09;78.27;99695.06;3134731;28;19967;-79
2021/01/26 01:32:18;;;;;;;;;;;;;;;1.11;78.14;99702.84;3128575;28;19925;-79
2021/01/26 01:33:49;;;;;;;;;;;;;;;1.13;78.03;99689.63;3133881;28;19955;-79
2021/01/26 01:35:21;;;;;;;;;;;;;;;1.12;77.97;99701.91;3129017;28;19926;-79
2021/01/26 01:36:53;;;;;;;;;;;;;;;1.13;77.54;99700.16;3134300;28;19964;-79
2021/01/26 01:38:24;;;;;;;;;;;;;;;1.13;77.68;99700.97;3133250;28;19947;-79
2021/01/26 01:39:55;;;;;;;;;;;;;;;1.18;77.85;99698.06;3128153;28;19960;-80
2021/01/26 01:41:32;;;;;;;;;;;;;;;1.18;77.72;99698.06;3129563;28;20319;-79
2021/01/26 01:43:03;;;;;;;;;;;;;;;1.16;77.60;99700.81;3137641;28;20393;-79
2021/01/26 01:44:34;;;;;;;;;;;;;;;1.10;77.46;99703.78;3130197;28;20082;-79
2021/01/26 01:46:08;;;;;;;;;;;;;;;1.09;77.44;99700.31;3132100;28;20403;-79
2021/01/26 01:47:42;;;;;;;;;;;;;;;1.16;77.60;99707.84;3127883;28;19972;-79
2021/01/26 01:49:17;;;;;;;;;;;;;;;1.20;77.43;99702.28;3132930;28;19964;-79
2021/01/26 01:50:51;;;;;;;;;;;;;;;1.20;77.20;99701.47;3129725;28;20010;-79
2021/01/26 01:52:24;;;;;;;;;;;;;;;1.17;77.24;99699.00;3132127;28;19958;-79
2021/01/26 01:53:57;;;;;;;;;;;;;;;1.18;77.35;99701.53;3133555;28;19971;-79
2021/01/26 01:55:31;;;;;;;;;;;;;;;1.21;77.36;99700.53;3128049;28;19924;-80
2021/01/26 01:57:04;;;;;;;;;;;;;;;1.22;77.36;99707.50;3132981;28;19986;-78
2021/01/26 01:58:37;;;;;;;;;;;;;;;1.16;77.29;99699.94;3121077;28;19994;-78
2021/01/26 02:00:10;;;;;;;;;;;;;;;1.19;77.27;99705.03;3133206;28;19952;-77
2021/01/26 02:01:42;;;;;;;;;;;;;;;1.19;77.04;99699.75;3130988;28;20020;-78
2021/01/26 02:03:18;;;;;;;;;;;;;;;1.22;77.11;99715.38;3134089;28;19952;-78
2021/01/26 02:04:50;;;;;;;;;;;;;;;1.21;76.94;99709.25;3129961;28;19964;-78
2021/01/26 02:06:23;;;;;;;;;;;;;;;1.22;77.09;99712.75;3119975;28;19936;-78
2021/01/26 02:07:56;;;;;;;;;;;;;;;1.18;76.89;99713.88;3128967;28;19960;-78
2021/01/26 02:09:28;;;;;;;;;;;;;;;1.19;76.45;99711.13;3128961;28;20039;-78
2021/01/26 02:11:00;;;;;;;;;;;;;;;1.18;76.54;99721.75;3132222;28;19964;-78
2021/01/26 02:12:31;;;;;;;;;;;;;;;1.18;76.43;99722.59;3132829;28;20814;-79
2021/01/26 02:14:03;;;;;;;;;;;;;;;1.21;76.49;99718.97;3131105;28;19967;-78
2021/01/26 02:15:35;;;;;;;;;;;;;;;1.17;76.20;99717.44;3130640;28;19925;-78
2021/01/26 02:17:10;;;;;;;;;;;;;;;1.11;75.91;99707.28;3129856;28;19972;-78
2021/01/26 02:18:55;;;;;;;;;;;;;;;1.09;75.96;99710.84;3131268;28;20379;-78
2021/01/26 02:20:47;;;;;;;;;;;;;;;1.11;75.74;99702.84;3128302;28;19929;-78
2021/01/26 02:22:48;;;;;;;;;;;;;;;1.07;75.39;99704.81;3113341;28;20058;-78
2021/01/26 02:24:43;;;;;;;;;;;;;;;1.03;75.18;99694.56;3093208;28;19953;-78
2021/01/26 02:26:25;;;;;;;;;;;;;;;1.05;75.43;99698.81;3100050;28;19925;-78
2021/01/26 02:28:15;;;;;;;;;;;;;;;1.03;74.92;99703.34;3127565;28;19936;-78
2021/01/26 02:30:01;;;;;;;;;;;;;;;1.01;75.21;99697.31;3128695;28;19976;-78
2021/01/26 02:31:48;;;;;;;;;;;;;;;1.04;75.00;99698.91;3129490;28;19959;-78
2021/01/26 02:33:52;;;;;;;;;;;;;;;1.02;75.08;99704.28;3130677;28;20365;-78
2021/01/26 02:35:42;;;;;;;;;;;;;;;1.01;75.66;99692.03;3076733;28;19984;-79
2021/01/26 02:37:32;;;;;;;;;;;;;;;0.98;75.37;99697.47;3081240;28;20547;-78
2021/01/26 02:39:22;;;;;;;;;;;;;;;1.03;75.44;99695.44;3081484;28;20021;-78
2021/01/26 02:40:59;;;;;;;;;;;;;;;1.02;75.87;99701.63;3105409;28;19925;-78
2021/01/26 02:42:42;;;;;;;;;;;;;;;1.02;75.64;99698.13;3129950;28;20145;-78
2021/01/26 02:44:19;;;;;;;;;;;;;;;0.99;75.54;99700.97;3124854;28;19925;-78
2021/01/26 02:45:59;;;;;;;;;;;;;;;0.98;75.39;99700.13;3131341;28;20370;-78
2021/01/26 02:47:38;;;;;;;;;;;;;;;0.99;75.38;99703.63;3127931;28;19940;-78
2021/01/26 02:49:16;;;;;;;;;;;;;;;1.00;75.43;99703.50;3128926;28;19964;-78
2021/01/26 02:50:50;;;;;;;;;;;;;;;0.94;75.40;99701.25;3130261;28;19991;-78
2021/01/26 02:52:28;;;;;;;;;;;;;;;0.96;75.35;99696.72;3131067;28;19924;-78
2021/01/26 02:54:02;;;;;;;;;;;;;;;0.93;75.44;99702.19;3132822;28;19960;-78
2021/01/26 02:55:37;;;;;;;;;;;;;;;0.94;75.46;99696.00;3128444;28;19966;-78
2021/01/26 02:57:11;;;;;;;;;;;;;;;0.89;75.34;99708.56;3135487;28;19968;-78
2021/01/26 02:58:51;;;;;;;;;;;;;;;0.92;75.49;99700.50;3130374;28;19935;-78
2021/01/26 03:00:26;;;;;;;;;;;;;;;0.88;75.45;99702.47;3143971;28;19921;-79
2021/01/26 03:01:59;;;;;;;;;;;;;;;0.95;75.73;99702.91;3140599;28;19936;-78
2021/01/26 03:03:35;;;;;;;;;;;;;;;0.91;75.72;99702.25;3136692;28;19974;-78
2021/01/26 03:05:07;;;;;;;;;;;;;;;0.91;75.79;99699.63;3127938;28;19982;-79
2021/01/26 03:06:42;;;;;;;;;;;;;;;0.96;75.63;99699.34;3130444;28;19925;-78
2021/01/26 03:08:16;;;;;;;;;;;;;;;0.91;75.65;99701.44;3131618;28;19956;-78
2021/01/26 03:09:51;;;;;;;;;;;;;;;0.90;75.78;99699.72;3131291;28;19971;-78
2021/01/26 03:11:24;;;;;;;;;;;;;;;0.96;75.93;99706.41;3133678;28;19964;-78
2021/01/26 03:12:58;;;;;;;;;;;;;;;0.94;75.73;99701.25;3128167;28;19964;-78
2021/01/26 03:14:31;;;;;;;;;;;;;;;0.94;75.85;99706.53;3132508;28;19978;-78
2021/01/26 03:16:05;;;;;;;;;;;;;;;0.90;75.78;99715.53;3132771;28;19932;-78
2021/01/26 03:17:38;;;;;;;;;;;;;;;0.89;75.77;99717.31;3123621;28;20399;-77
2021/01/26 03:19:12;;;;;;;;;;;;;;;0.94;76.00;99717.03;3130712;28;19975;-78
2021/01/26 03:20:45;;;;;;;;;;;;;;;0.92;75.89;99718.91;3130296;28;20378;-78
2021/01/26 03:22:18;;;;;;;;;;;;;;;0.88;76.05;99714.75;3124332;28;20020;-78
2021/01/26 03:23:53;;;;;;;;;;;;;;;0.95;76.04;99709.97;3130280;28;19971;-78
2021/01/26 03:25:26;;;;;;;;;;;;;;;1.00;76.26;99708.78;3128696;28;20395;-78
2021/01/26 03:26:57;;;;;;;;;;;;;;;1.02;76.00;99717.44;3122227;28;19968;-78
2021/01/26 03:28:29;;;;;;;;;;;;;;;0.99;76.08;99712.34;3121072;28;20024;-78
2021/01/26 03:30:02;;;;;;;;;;;;;;;1.03;75.75;99723.53;3129844;28;20488;-78
2021/01/26 03:31:35;;;;;;;;;;;;;;;1.03;76.05;99715.63;3127179;28;20442;-78
2021/01/26 03:33:09;;;;;;;;;;;;;;;1.05;75.74;99727.75;3133214;28;19929;-79
2021/01/26 03:34:39;;;;;;;;;;;;;;;1.10;76.24;99722.22;3121477;28;19972;-79
2021/01/26 03:36:11;;;;;;;;;;;;;;;1.06;76.36;99724.19;3133252;28;20673;-78
2021/01/26 03:37:44;;;;;;;;;;;;;;;1.05;76.29;99727.75;3128594;28;19962;-78
2021/01/26 03:39:16;;;;;;;;;;;;;;;1.04;76.56;99728.69;3132809;28;19947;-78
2021/01/26 03:40:48;;;;;;;;;;;;;;;1.04;76.60;99728.69;3131707;28;19979;-78
2021/01/26 03:42:20;;;;;;;;;;;;;;;1.07;76.47;99730.31;3128570;28;20387;-78
2021/01/26 03:43:52;;;;;;;;;;;;;;;1.07;76.13;99730.31;3124267;28;19999;-79
2021/01/26 03:45:23;;;;;;;;;;;;;;;0.89;77.10;99730.47;3131128;28;20012;-78
2021/01/26 03:47:06;;;;;;;;;;;;;;;0.95;76.85;99731.88;3129287;28;19932;-78
2021/01/26 03:48:45;;;;;;;;;;;;;;;0.95;77.47;99733.69;3129800;28;19936;-77
2021/01/26 03:50:30;;;;;;;;;;;;;;;0.93;77.86;99737.25;3126560;28;19957;-78
2021/01/26 03:52:13;;;;;;;;;;;;;;;0.98;77.80;99736.97;3124757;28;20250;-78
2021/01/26 03:53:59;;;;;;;;;;;;;;;0.97;78.10;99731.81;3116480;28;19976;-78
2021/01/26 03:55:31;;;;;;;;;;;;;;;0.99;77.85;99733.41;3130245;28;19960;-78
2021/01/26 03:57:10;;;;;;;;;;;;;;;0.92;78.41;99729.44;3130126;28;19975;-78
2021/01/26 03:58:49;;;;;;;;;;;;;;;0.90;79.08;99728.69;3120781;28;19929;-78
2021/01/26 04:00:30;;;;;;;;;;;;;;;0.97;78.96;99735.28;3131543;28;19948;-78
2021/01/26 04:02:06;;;;;;;;;;;;;;;0.91;79.69;99727.75;3126656;28;20004;-79
2021/01/26 04:03:46;;;;;;;;;;;;;;;0.96;79.70;99733.56;3126599;28;19964;-78
2021/01/26 04:05:20;;;;;;;;;;;;;;;0.98;79.08;99741.41;3131568;28;19967;-78
2021/01/26 04:06:52;;;;;;;;;;;;;;;0.98;78.76;99733.50;3128000;28;20413;-78
2021/01/26 04:08:27;;;;;;;;;;;;;;;0.96;79.38;99733.56;3130100;28;19968;-79
2021/01/26 04:10:00;;;;;;;;;;;;;;;0.97;79.47;99724.75;3132085;28;19953;-78
2021/01/26 04:11:35;;;;;;;;;;;;;;;0.95;79.43;99717.88;3129001;28;19984;-78
2021/01/26 04:13:08;;;;;;;;;;;;;;;0.91;80.06;99722.47;3134015;28;19968;-78
2021/01/26 04:14:44;;;;;;;;;;;;;;;0.89;80.45;99730.47;3126771;28;19924;-78
2021/01/26 04:16:19;;;;;;;;;;;;;;;0.91;80.92;99733.00;3132477;28;20026;-78
2021/01/26 04:17:52;;;;;;;;;;;;;;;0.92;80.14;99730.28;3125834;28;19952;-79
2021/01/26 04:19:26;;;;;;;;;;;;;;;0.90;80.46;99737.41;3130662;28;19964;-78
2021/01/26 04:20:59;;;;;;;;;;;;;;;0.92;81.20;99734.72;3133777;28;19928;-78
2021/01/26 04:22:30;;;;;;;;;;;;;;;0.94;81.17;99740.75;3129603;28;19968;-79
2021/01/26 04:24:01;;;;;;;;;;;;;;;0.93;80.56;99741.66;3134016;28;20303;-78
2021/01/26 04:25:33;;;;;;;;;;;;;;;0.87;80.78;99742.00;3123608;28;19961;-78
2021/01/26 04:27:06;;;;;;;;;;;;;;;0.91;81.02;99740.91;3129905;28;19931;-78
2021/01/26 04:28:38;;;;;;;;;;;;;;;0.93;81.23;99739.03;3122961;28;19972;-78
2021/01/26 04:30:10;;;;;;;;;;;;;;;0.99;81.11;99741.31;3125857;28;19931;-78
2021/01/26 04:31:43;;;;;;;;;;;;;;;0.98;80.90;99736.97;3134407;28;19929;-78
2021/01/26 04:33:15;;;;;;;;;;;;;;;0.93;81.08;99733.78;3131388;28;20551;-78
2021/01/26 04:34:46;;;;;;;;;;;;;;;0.97;80.64;99740.53;3134001;28;19967;-78
2021/01/26 04:36:18;;;;;;;;;;;;;;;0.95;80.66;99733.69;3131905;28;19933;-78
2021/01/26 04:37:49;;;;;;;;;;;;;;;0.97;80.45;99742.34;3128488;28;20314;-78
2021/01/26 04:39:21;;;;;;;;;;;;;;;0.93;80.71;99736.41;3131805;28;19925;-78
2021/01/26 04:40:53;;;;;;;;;;;;;;;1.02;80.47;99740.25;3131751;28;20363;-79
2021/01/26 04:42:26;;;;;;;;;;;;;;;1.00;80.28;99737.72;3138500;28;19929;-79
2021/01/26 04:44:21;;;;;;;;;;;;;;;1.02;80.17;99730.59;3129952;28;19933;-78
2021/01/26 04:46:03;;;;;;;;;;;;;;;1.04;79.70;99728.69;3141391;28;19952;-78
2021/01/26 04:47:40;;;;;;;;;;;;;;;1.07;79.87;99733.78;3137822;28;19979;-79
2021/01/26 04:49:14;;;;;;;;;;;;;;;1.11;79.37;99726.56;3144804;28;19925;-78
2021/01/26 04:50:50;;;;;;;;;;;;;;;1.00;79.77;99737.72;3144890;28;19925;-77
2021/01/26 04:52:23;;;;;;;;;;;;;;;1.17;79.61;99738.50;3142485;28;20326;-78
2021/01/26 04:54:05;;;;;;;;;;;;;;;1.22;79.05;99741.72;3144880;28;19960;-79
2021/01/26 04:55:44;;;;;;;;;;;;;;;1.18;77.85;99734.94;3129346;28;19932;-78
2021/01/26 04:57:26;;;;;;;;;;;;;;;1.19;77.97;99744.53;3122672;28;19984;-77
2021/01/26 04:59:03;;;;;;;;;;;;;;;1.24;77.86;99745.94;3125881;28;20009;-77
2021/01/26 05:00:41;;;;;;;;;;;;;;;1.26;77.46;99743.22;3132432;28;19960;-78
2021/01/26 05:02:24;;;;;;;;;;;;;;;1.35;77.61;99741.81;3129431;28;19971;-77
2021/01/26 05:04:00;;;;;;;;;;;;;;;1.37;77.14;99739.94;3137778;28;19964;-77
2021/01/26 05:05:34;;;;;;;;;;;;;;;1.42;76.71;99739.66;3128584;28;19979;-77
2021/01/26 05:07:09;;;;;;;;;;;;;;;1.39;76.25;99738.03;3122603;28;19925;-78
2021/01/26 05:08:42;;;;;;;;;;;;;;;1.48;76.44;99745.38;3129551;28;19975;-79
2021/01/26 05:10:16;;;;;;;;;;;;;;;1.53;75.70;99739.84;3132712;28;19964;-78
2021/01/26 05:11:48;;;;;;;;;;;;;;;1.51;75.39;99742.56;3137449;28;20275;-77
2021/01/26 05:13:20;;;;;;;;;;;;;;;1.48;75.65;99747.19;3129844;28;20304;-78
2021/01/26 05:14:52;;;;;;;;;;;;;;;1.55;75.42;99749.38;3137022;28;20128;-78
2021/01/26 05:16:27;;;;;;;;;;;;;;;1.60;75.17;99743.81;3131219;28;19953;-78
2021/01/26 05:17:59;;;;;;;;;;;;;;;1.58;74.68;99750.94;3134607;28;20119;-78
2021/01/26 05:19:36;;;;;;;;;;;;;;;1.62;75.30;99749.81;3131091;28;19928;-78
2021/01/26 05:21:13;;;;;;;;;;;;;;;1.66;75.11;99743.41;3129667;28;20382;-77
2021/01/26 05:22:49;;;;;;;;;;;;;;;1.65;74.81;99743.53;3124874;28;19960;-78
2021/01/26 05:24:22;;;;;;;;;;;;;;;1.67;75.00;99739.84;3132485;28;19924;-78
2021/01/26 05:25:54;;;;;;;;;;;;;;;1.69;74.75;99751.16;3133071;28;20370;-77
2021/01/26 05:27:25;;;;;;;;;;;;;;;1.68;74.91;99752.09;3131961;28;19931;-78
2021/01/26 05:28:57;;;;;;;;;;;;;;;1.63;74.84;99738.31;3132895;28;20019;-78
2021/01/26 05:30:33;;;;;;;;;;;;;;;1.58;74.46;99750.09;3134655;28;19960;-78
2021/01/26 05:32:05;;;;;;;;;;;;;;;1.66;74.69;99755.72;3131730;28;19931;-77
2021/01/26 05:33:37;;;;;;;;;;;;;;;1.61;74.71;99744.63;3135317;28;19964;-77
2021/01/26 05:35:10;;;;;;;;;;;;;;;1.64;74.81;99732.13;3128856;28;19928;-77
2021/01/26 05:36:42;;;;;;;;;;;;;;;1.61;74.93;99756.00;3135450;28;19948;-77
2021/01/26 05:38:16;;;;;;;;;;;;;;;1.69;74.89;99745.88;3130880;28;22415;-78
2021/01/26 05:39:51;;;;;;;;;;;;;;;1.68;74.62;99744.19;3135466;28;20386;-78
2021/01/26 05:41:22;;;;;;;;;;;;;;;1.63;74.88;99746.22;3140668;28;19925;-78
2021/01/26 05:42:56;;;;;;;;;;;;;;;1.69;74.37;99747.66;3142543;28;19925;-78
2021/01/26 05:44:43;;;;;;;;;;;;;;;1.61;74.23;99740.19;3133599;28;19933;-78
2021/01/26 05:46:49;;;;;;;;;;;;;;;1.63;74.38;99746.22;3132308;28;20023;-78
2021/01/26 05:48:37;;;;;;;;;;;;;;;1.58;74.83;99755.34;3132117;28;19928;-78
2021/01/26 05:50:35;;;;;;;;;;;;;;;1.68;74.31;99749.44;3129094;28;20023;-78
2021/01/26 05:52:08;;;;;;;;;;;;;;;1.74;74.12;99742.94;3128671;28;20098;-78
2021/01/26 05:53:39;;;;;;;;;;;;;;;1.80;73.95;99741.69;3132769;28;20423;-78
2021/01/26 05:55:15;;;;;;;;;;;;;;;1.73;73.95;99743.88;3139346;28;19936;-78
2021/01/26 05:56:48;;;;;;;;;;;;;;;1.69;73.85;99740.59;3133626;28;19924;-78
2021/01/26 05:58:25;;;;;;;;;;;;;;;1.72;74.00;99750.09;3135801;28;19925;-79
2021/01/26 06:00:13;;;;;;;;;;;;;;;1.69;74.01;99751.16;3128852;28;19971;-79
2021/01/26 06:01:44;;;;;;;;;;;;;;;1.64;73.93;99752.38;3127993;28;20460;-80
2021/01/26 06:03:17;;;;;;;;;;;;;;;1.67;73.94;99758.28;3134019;28;20429;-79
2021/01/26 06:04:49;;;;;;;;;;;;;;;1.79;73.65;99755.84;3130318;28;19968;-79
2021/01/26 06:06:21;;;;;;;;;;;;;;;1.71;73.80;99762.41;3132983;28;20010;-79
2021/01/26 06:08:07;;;;;;;;;;;;;;;1.76;73.79;99767.41;3130829;28;19960;-79
2021/01/26 06:09:39;;;;;;;;;;;;;;;1.74;73.69;99768.44;3134079;28;19967;-79
2021/01/26 06:11:15;;;;;;;;;;;;;;;1.67;73.63;99768.84;3129723;28;19929;-78
2021/01/26 06:12:53;;;;;;;;;;;;;;;1.74;73.14;99763.16;3134158;28;20048;-80
2021/01/26 06:14:24;;;;;;;;;;;;;;;1.78;72.99;99764.69;3130712;28;19929;-77
2021/01/26 06:16:09;;;;;;;;;;;;;;;1.71;73.25;99767.69;3131289;28;19925;-79
2021/01/26 06:17:40;;;;;;;;;;;;;;;1.82;73.08;99766.19;3128210;28;20362;-79
2021/01/26 06:19:14;;;;;;;;;;;;;;;1.86;72.75;99773.78;3133621;28;19932;-79
2021/01/26 06:20:46;;;;;;;;;;;;;;;1.79;72.82;99767.22;3133769;28;19925;-79
2021/01/26 06:22:24;;;;;;;;;;;;;;;1.77;72.75;99768.25;3131250;28;19980;-79
2021/01/26 06:23:57;;;;;;;;;;;;;;;1.83;72.55;99762.59;3138217;28;19959;-80
2021/01/26 06:25:30;;;;;;;;;;;;;;;1.83;72.63;99766.09;3131743;28;19967;-78
2021/01/26 06:27:19;;;;;;;;;;;;;;;1.81;72.62;99775.88;3134718;28;20433;-79
2021/01/26 06:28:58;;;;;;;;;;;;;;;1.76;72.89;99771.84;3132491;28;19925;-79
2021/01/26 06:30:42;;;;;;;;;;;;;;;1.89;72.92;99777.19;3129615;28;19963;-79
2021/01/26 06:32:18;;;;;;;;;;;;;;;1.89;72.52;99772.75;3129906;28;19971;-79
2021/01/26 06:34:00;;;;;;;;;;;;;;;1.84;72.75;99780.94;3131752;28;19944;-79
2021/01/26 06:35:33;;;;;;;;;;;;;;;1.84;72.59;99786.22;3134883;28;20387;-79
2021/01/26 06:37:18;;;;;;;;;;;;;;;1.80;73.17;99781.22;3131237;28;19937;-78
2021/01/26 06:39:07;;;;;;;;;;;;;;;1.84;72.73;99790.66;3120541;28;20073;-78
2021/01/26 06:40:47;;;;;;;;;;;;;;;1.87;72.84;99790.47;3121886;28;19968;-79
2021/01/26 06:42:22;;;;;;;;;;;;;;;1.89;72.32;99778.03;3137542;28;19929;-79
2021/01/26 06:44:14;;;;;;;;;;;;;;;1.92;72.29;99793.66;3129884;28;19932;-78
2021/01/26 06:45:50;;;;;;;;;;;;;;;1.89;72.63;99793.84;3106166;28;20317;-79
2021/01/26 06:47:36;;;;;;;;;;;;;;;1.86;72.63;99799.31;3130786;28;19990;-78
2021/01/26 06:49:28;;;;;;;;;;;;;;;1.85;72.62;99822.19;3131502;28;19986;-78
2021/01/26 06:51:05;;;;;;;;;;;;;;;1.91;72.60;99820.13;3129228;28;19925;-79
2021/01/26 06:52:50;;;;;;;;;;;;;;;1.91;72.50;99818.31;3118783;28;19926;-78
2021/01/26 06:54:32;;;;;;;;;;;;;;;1.99;72.65;99812.59;3131658;28;19968;-78
2021/01/26 06:56:09;;;;;;;;;;;;;;;1.95;72.40;99817.22;3130524;28;20025;-78
2021/01/26 06:58:04;;;;;;;;;;;;;;;1.89;72.44;99820.22;3134415;28;19924;-79
2021/01/26 06:59:52;;;;;;;;;;;;;;;1.94;72.70;99818.16;3105818;28;19966;-78
2021/01/26 07:01:45;;;;;;;;;;;;;;;1.93;72.29;99832.28;3139569;28;19925;-79
2021/01/26 07:03:31;;;;;;;;;;;;;;;1.96;72.73;99825.94;3133311;28;20083;-79
2021/01/26 07:05:23;;;;;;;;;;;;;;;1.98;72.76;99829.34;3136046;28;19975;-78
2021/01/26 07:07:07;;;;;;;;;;;;;;;1.98;72.53;99832.00;3135958;28;20363;-78
2021/01/26 07:08:47;;;;;;;;;;;;;;;1.97;72.36;99828.50;3136381;28;19986;-80
2021/01/26 07:10:24;;;;;;;;;;;;;;;1.98;72.39;99832.00;3134960;28;19995;-80
2021/01/26 07:12:07;;;;;;;;;;;;;;;1.94;72.11;99836.59;3136830;28;19952;-78
2021/01/26 07:13:41;;;;;;;;;;;;;;;1.90;72.75;99826.34;3127680;28;19944;-78
2021/01/26 07:15:29;;;;;;;;;;;;;;;1.94;72.66;99831.34;3143393;28;19925;-78
2021/01/26 07:17:01;;;;;;;;;;;;;;;1.97;72.62;99839.06;3137009;28;19925;-78
2021/01/26 07:18:41;;;;;;;;;;;;;;;1.97;72.86;99843.47;3131710;28;19951;-77
2021/01/26 07:20:18;;;;;;;;;;;;;;;1.94;72.61;99828.69;3136641;28;19997;-78
2021/01/26 07:22:02;;;;;;;;;;;;;;;1.91;72.91;99843.88;3145525;28;19967;-79
2021/01/26 07:23:46;;;;;;;;;;;;;;;1.90;72.73;99850.91;3141176;28;19936;-79
2021/01/26 07:25:22;;;;;;;;;;;;;;;1.91;72.65;99851.78;3138563;28;20098;-79
2021/01/26 07:27:22;;;;;;;;;;;;;;;1.90;72.80;99840.34;3137543;28;19932;-79
2021/01/26 07:29:08;;;;;;;;;;;;;;;1.91;72.83;99844.69;3141719;28;19924;-78
2021/01/26 07:30:44;;;;;;;;;;;;;;;1.93;72.97;99848.09;3119721;28;19933;-78
2021/01/26 07:32:20;;;;;;;;;;;;;;;1.95;73.20;99846.22;3132834;28;19971;-79
2021/01/26 07:33:56;;;;;;;;;;;;;;;1.96;73.11;99849.69;3135722;28;19924;-78
2021/01/26 07:35:31;;;;;;;;;;;;;;;1.96;72.89;99849.69;3130653;28;19978;-79
2021/01/26 07:37:07;;;;;;;;;;;;;;;1.89;72.88;99851.00;3134881;28;20017;-79
2021/01/26 07:38:43;;;;;;;;;;;;;;;1.89;73.16;99851.84;3131398;28;20217;-79
2021/01/26 07:40:18;;;;;;;;;;;;;;;1.98;73.10;99859.22;3131983;28;19929;-79
2021/01/26 07:41:54;;;;;;;;;;;;;;;2.00;73.00;99859.13;3129333;28;19932;-79
2021/01/26 07:43:31;;;;;;;;;;;;;;;1.93;73.24;99866.53;3131364;28;19928;-79
2021/01/26 07:45:04;;;;;;;;;;;;;;;1.90;73.13;99864.09;3133253;28;20924;-79
2021/01/26 07:46:37;;;;;;;;;;;;;;;1.99;72.64;99863.53;3132750;28;19932;-79
2021/01/26 07:48:10;;;;;;;;;;;;;;;1.97;72.99;99860.16;3136697;28;19925;-79
2021/01/26 07:49:45;;;;;;;;;;;;;;;2.00;72.77;99859.94;3131408;28;19925;-79
2021/01/26 07:51:18;;;;;;;;;;;;;;;1.96;72.79;99853.19;3131287;28;20067;-79
2021/01/26 07:52:52;;;;;;;;;;;;;;;1.89;73.32;99861.56;3129425;28;19925;-78
2021/01/26 07:54:28;;;;;;;;;;;;;;;1.95;72.95;99862.03;3128694;28;19979;-78
2021/01/26 07:56:03;;;;;;;;;;;;;;;1.96;73.20;99869.00;3129706;28;19994;-79
2021/01/26 07:57:37;;;;;;;;;;;;;;;1.90;73.06;99863.25;3133108;28;19929;-79
2021/01/26 07:59:12;;;;;;;;;;;;;;;1.98;72.70;99858.34;3132842;28;19971;-79
2021/01/26 08:00:45;;;;;;;;;;;;;;;1.94;72.98;99870.88;3133997;28;19960;-79
2021/01/26 08:02:18;;;;;;;;;;;;;;;1.94;72.86;99865.59;3124264;28;19925;-80
2021/01/26 08:03:49;;;;;;;;;;;;;;;2.01;72.75;99859.00;3132752;28;20451;-79
2021/01/26 08:05:35;;;;;;;;;;;;;;;1.95;73.02;99858.53;3132788;28;19932;-78
2021/01/26 08:07:07;;;;;;;;;;;;;;;2.02;72.58;99867.78;3128406;28;19925;-79
2021/01/26 08:08:39;;;;;;;;;;;;;;;2.02;72.56;99867.78;3128915;28;19972;-79
2021/01/26 08:10:16;;;;;;;;;;;;;;;2.07;72.40;99860.41;3132900;28;19924;-78
2021/01/26 08:11:55;;;;;;;;;;;;;;;2.05;72.45;99859.66;3126584;28;19963;-79
2021/01/26 08:13:27;;;;;;;;;;;;;;;2.03;72.63;99859.78;3132623;28;19925;-78
2021/01/26 08:15:09;;;;;;;;;;;;;;;2.01;72.24;99859.00;3130210;28;20020;-79
2021/01/26 08:16:43;;;;;;;;;;;;;;;1.99;72.89;99847.69;3124592;28;20394;-78
2021/01/26 08:18:18;;;;;;;;;;;;;;;1.96;73.07;99858.47;3130487;28;19978;-78
2021/01/26 08:19:50;;;;;;;;;;;;;;;1.93;72.94;99866.53;3125942;28;19932;-78
2021/01/26 08:21:26;;;;;;;;;;;;;;;1.95;73.10;99869.06;3133671;28;20286;-79
2021/01/26 08:22:59;;;;;;;;;;;;;;;1.97;73.38;99875.97;3129961;28;20393;-79
2021/01/26 08:24:34;;;;;;;;;;;;;;;1.95;73.49;99883.13;3130824;28;19955;-78
2021/01/26 08:26:15;;;;;;;;;;;;;;;1.98;73.29;99885.59;3128577;28;19945;-79